sensor_id;sensor_type;location;lat;lon;timestamp;temperature;humidity
67196;DHT22;54122;53.538;49.366;2023-06-26T00:01:01;13.70;81.80
67196;DHT22;54122;53.538;49.366;2023-06-26T00:03:28;13.70;80.70
67196;DHT22;54122;53.538;49.366;2023-06-26T00:05:55;13.70;80.90
67196;DHT22;54122;53.538;49.366;2023-06-26T00:08:27;13.70;81.10
67196;DHT22;54122;53.538;49.366;2023-06-26T00:10:54;13.70;81.30
67196;DHT22;54122;53.538;49.366;2023-06-26T00:13:22;13.70;81.40
67196;DHT22;54122;53.538;49.366;2023-06-26T00:15:48;13.70;81.30
67196;DHT22;54122;53.538;49.366;2023-06-26T00:18:15;13.80;81.30
67196;DHT22;54122;53.538;49.366;2023-06-26T00:20:41;13.80;81.20
67196;DHT22;54122;53.538;49.366;2023-06-26T00:23:08;13.80;82.50
67196;DHT22;54122;53.538;49.366;2023-06-26T00:25:34;13.90;81.40
67196;DHT22;54122;53.538;49.366;2023-06-26T00:28:01;13.90;81.30
67196;DHT22;54122;53.538;49.366;2023-06-26T00:30:27;13.80;81.40
67196;DHT22;54122;53.538;49.366;2023-06-26T00:32:54;13.80;81.50
67196;DHT22;54122;53.538;49.366;2023-06-26T00:35:20;13.80;81.70
67196;DHT22;54122;53.538;49.366;2023-06-26T00:37:47;13.80;82.20
67196;DHT22;54122;53.538;49.366;2023-06-26T00:40:13;13.80;82.10
67196;DHT22;54122;53.538;49.366;2023-06-26T00:42:40;13.80;82.40
67196;DHT22;54122;53.538;49.366;2023-06-26T00:45:06;13.90;82.50
67196;DHT22;54122;53.538;49.366;2023-06-26T00:47:33;13.90;82.40
67196;DHT22;54122;53.538;49.366;2023-06-26T00:49:59;14.00;82.40
67196;DHT22;54122;53.538;49.366;2023-06-26T00:52:26;13.90;82.30
67196;DHT22;54122;53.538;49.366;2023-06-26T00:54:53;13.90;82.30
67196;DHT22;54122;53.538;49.366;2023-06-26T00:57:19;13.90;82.40
67196;DHT22;54122;53.538;49.366;2023-06-26T00:59:46;13.90;82.70
67196;DHT22;54122;53.538;49.366;2023-06-26T01:02:12;13.90;82.90
67196;DHT22;54122;53.538;49.366;2023-06-26T01:04:48;14.00;82.80
67196;DHT22;54122;53.538;49.366;2023-06-26T01:07:15;14.00;82.50
67196;DHT22;54122;53.538;49.366;2023-06-26T01:09:46;14.10;82.50
67196;DHT22;54122;53.538;49.366;2023-06-26T01:12:14;14.10;82.40
67196;DHT22;54122;53.538;49.366;2023-06-26T01:14:40;14.20;82.50
67196;DHT22;54122;53.538;49.366;2023-06-26T01:17:08;14.20;82.30
67196;DHT22;54122;53.538;49.366;2023-06-26T01:19:38;14.30;82.30
67196;DHT22;54122;53.538;49.366;2023-06-26T01:22:27;14.30;82.20
67196;DHT22;54122;53.538;49.366;2023-06-26T01:25:03;14.40;82.10
67196;DHT22;54122;53.538;49.366;2023-06-26T01:27:34;14.40;82.10
67196;DHT22;54122;53.538;49.366;2023-06-26T01:30:03;14.50;82.20
67196;DHT22;54122;53.538;49.366;2023-06-26T01:32:31;14.50;82.00
67196;DHT22;54122;53.538;49.366;2023-06-26T01:35:02;14.60;82.00
67196;DHT22;54122;53.538;49.366;2023-06-26T01:37:29;14.60;81.90
67196;DHT22;54122;53.538;49.366;2023-06-26T01:39:56;14.70;82.10
67196;DHT22;54122;53.538;49.366;2023-06-26T01:42:22;15.20;82.50
67196;DHT22;54122;53.538;49.366;2023-06-26T01:44:49;16.50;79.40
67196;DHT22;54122;53.538;49.366;2023-06-26T01:47:22;18.00;73.90
67196;DHT22;54122;53.538;49.366;2023-06-26T01:50:06;19.50;68.60
67196;DHT22;54122;53.538;49.366;2023-06-26T01:52:46;20.60;65.00
67196;DHT22;54122;53.538;49.366;2023-06-26T01:55:28;21.40;60.80
67196;DHT22;54122;53.538;49.366;2023-06-26T01:57:59;21.90;58.60
67196;DHT22;54122;53.538;49.366;2023-06-26T02:00:26;22.50;56.50
67196;DHT22;54122;53.538;49.366;2023-06-26T02:02:53;22.90;54.30
67196;DHT22;54122;53.538;49.366;2023-06-26T02:05:19;23.30;53.50
67196;DHT22;54122;53.538;49.366;2023-06-26T02:07:46;23.60;51.90
67196;DHT22;54122;53.538;49.366;2023-06-26T02:10:12;24.00;51.20
67196;DHT22;54122;53.538;49.366;2023-06-26T02:12:39;24.40;49.70
67196;DHT22;54122;53.538;49.366;2023-06-26T02:15:06;24.70;48.70
67196;DHT22;54122;53.538;49.366;2023-06-26T02:17:33;25.00;47.40
67196;DHT22;54122;53.538;49.366;2023-06-26T02:19:59;25.10;46.90
67196;DHT22;54122;53.538;49.366;2023-06-26T02:22:26;25.10;46.40
67196;DHT22;54122;53.538;49.366;2023-06-26T02:24:54;25.20;46.40
67196;DHT22;54122;53.538;49.366;2023-06-26T02:27:21;25.30;45.90
67196;DHT22;54122;53.538;49.366;2023-06-26T02:29:47;25.00;46.10
67196;DHT22;54122;53.538;49.366;2023-06-26T02:32:14;24.80;46.30
67196;DHT22;54122;53.538;49.366;2023-06-26T02:34:40;24.90;46.20
67196;DHT22;54122;53.538;49.366;2023-06-26T02:37:06;25.20;45.80
67196;DHT22;54122;53.538;49.366;2023-06-26T02:39:34;25.40;45.00
67196;DHT22;54122;53.538;49.366;2023-06-26T02:42:00;25.30;44.30
67196;DHT22;54122;53.538;49.366;2023-06-26T02:44:27;24.70;45.40
67196;DHT22;54122;53.538;49.366;2023-06-26T02:46:53;23.70;47.50
67196;DHT22;54122;53.538;49.366;2023-06-26T02:49:20;22.80;50.60
67196;DHT22;54122;53.538;49.366;2023-06-26T02:51:46;22.30;52.50
67196;DHT22;54122;53.538;49.366;2023-06-26T02:54:13;22.40;54.20
67196;DHT22;54122;53.538;49.366;2023-06-26T02:56:39;23.00;51.70
67196;DHT22;54122;53.538;49.366;2023-06-26T02:59:05;24.10;48.60
67196;DHT22;54122;53.538;49.366;2023-06-26T03:01:32;25.20;45.70
67196;DHT22;54122;53.538;49.366;2023-06-26T03:03:59;26.00;43.60
67196;DHT22;54122;53.538;49.366;2023-06-26T03:06:27;26.40;42.40
67196;DHT22;54122;53.538;49.366;2023-06-26T03:08:53;26.80;41.20
67196;DHT22;54122;53.538;49.366;2023-06-26T03:11:20;27.00;40.50
67196;DHT22;54122;53.538;49.366;2023-06-26T03:13:46;27.20;39.60
67196;DHT22;54122;53.538;49.366;2023-06-26T03:16:13;27.70;39.20
67196;DHT22;54122;53.538;49.366;2023-06-26T03:18:40;27.90;38.60
67196;DHT22;54122;53.538;49.366;2023-06-26T03:21:06;28.10;37.80
67196;DHT22;54122;53.538;49.366;2023-06-26T03:23:33;28.20;37.50
67196;DHT22;54122;53.538;49.366;2023-06-26T03:26:00;28.10;37.60
67196;DHT22;54122;53.538;49.366;2023-06-26T03:28:26;28.30;36.70
67196;DHT22;54122;53.538;49.366;2023-06-26T03:30:53;28.20;36.20
67196;DHT22;54122;53.538;49.366;2023-06-26T03:33:19;28.00;36.90
67196;DHT22;54122;53.538;49.366;2023-06-26T03:35:46;27.90;37.30
67196;DHT22;54122;53.538;49.366;2023-06-26T03:38:12;28.50;36.60
67196;DHT22;54122;53.538;49.366;2023-06-26T03:40:39;28.10;36.30
67196;DHT22;54122;53.538;49.366;2023-06-26T03:43:05;27.10;37.70
67196;DHT22;54122;53.538;49.366;2023-06-26T03:45:32;26.10;39.70
67196;DHT22;54122;53.538;49.366;2023-06-26T03:47:58;26.10;40.50
67196;DHT22;54122;53.538;49.366;2023-06-26T03:50:25;26.30;39.50
67196;DHT22;54122;53.538;49.366;2023-06-26T03:52:51;26.40;39.70
67196;DHT22;54122;53.538;49.366;2023-06-26T03:55:18;26.80;39.30
67196;DHT22;54122;53.538;49.366;2023-06-26T03:57:44;27.40;38.20
67196;DHT22;54122;53.538;49.366;2023-06-26T04:00:11;28.30;36.30
67196;DHT22;54122;53.538;49.366;2023-06-26T04:02:39;28.70;35.60
67196;DHT22;54122;53.538;49.366;2023-06-26T04:05:05;29.30;34.30
67196;DHT22;54122;53.538;49.366;2023-06-26T04:07:32;29.40;33.30
67196;DHT22;54122;53.538;49.366;2023-06-26T04:09:58;29.50;33.20
67196;DHT22;54122;53.538;49.366;2023-06-26T04:12:25;29.70;33.20
67196;DHT22;54122;53.538;49.366;2023-06-26T04:14:51;29.90;32.60
67196;DHT22;54122;53.538;49.366;2023-06-26T04:17:18;30.10;32.60
67196;DHT22;54122;53.538;49.366;2023-06-26T04:19:44;30.30;32.30
67196;DHT22;54122;53.538;49.366;2023-06-26T04:22:11;30.70;30.60
67196;DHT22;54122;53.538;49.366;2023-06-26T04:24:37;30.60;30.50
67196;DHT22;54122;53.538;49.366;2023-06-26T04:27:04;30.70;30.80
67196;DHT22;54122;53.538;49.366;2023-06-26T04:29:32;31.00;30.00
67196;DHT22;54122;53.538;49.366;2023-06-26T04:31:58;31.30;29.50
67196;DHT22;54122;53.538;49.366;2023-06-26T04:34:26;31.40;29.30
67196;DHT22;54122;53.538;49.366;2023-06-26T04:36:53;31.40;29.20
67196;DHT22;54122;53.538;49.366;2023-06-26T04:39:19;31.60;29.40
67196;DHT22;54122;53.538;49.366;2023-06-26T04:41:46;31.80;28.30
67196;DHT22;54122;53.538;49.366;2023-06-26T04:44:12;31.80;28.70
67196;DHT22;54122;53.538;49.366;2023-06-26T04:46:39;32.00;27.90
67196;DHT22;54122;53.538;49.366;2023-06-26T04:49:08;31.90;27.70
67196;DHT22;54122;53.538;49.366;2023-06-26T04:51:35;31.80;27.70
67196;DHT22;54122;53.538;49.366;2023-06-26T04:54:07;31.80;28.10
67196;DHT22;54122;53.538;49.366;2023-06-26T04:56:34;32.00;27.80
67196;DHT22;54122;53.538;49.366;2023-06-26T04:59:01;32.40;27.60
67196;DHT22;54122;53.538;49.366;2023-06-26T05:01:29;32.60;27.00
67196;DHT22;54122;53.538;49.366;2023-06-26T05:03:56;32.80;26.80
67196;DHT22;54122;53.538;49.366;2023-06-26T05:06:23;33.00;26.70
67196;DHT22;54122;53.538;49.366;2023-06-26T05:08:49;33.10;26.30
67196;DHT22;54122;53.538;49.366;2023-06-26T05:11:17;33.00;26.00
67196;DHT22;54122;53.538;49.366;2023-06-26T05:13:43;32.70;26.50
67196;DHT22;54122;53.538;49.366;2023-06-26T05:16:10;32.40;26.50
67196;DHT22;54122;53.538;49.366;2023-06-26T05:18:37;32.30;26.80
67196;DHT22;54122;53.538;49.366;2023-06-26T05:21:03;32.50;26.50
67196;DHT22;54122;53.538;49.366;2023-06-26T05:23:33;32.30;26.20
67196;DHT22;54122;53.538;49.366;2023-06-26T05:26:03;32.20;25.80
67196;DHT22;54122;53.538;49.366;2023-06-26T05:28:30;32.20;25.90
67196;DHT22;54122;53.538;49.366;2023-06-26T05:30:59;32.50;25.60
67196;DHT22;54122;53.538;49.366;2023-06-26T05:33:26;32.30;26.80
67196;DHT22;54122;53.538;49.366;2023-06-26T05:35:53;32.50;26.00
67196;DHT22;54122;53.538;49.366;2023-06-26T05:38:21;32.80;25.70
67196;DHT22;54122;53.538;49.366;2023-06-26T05:40:48;32.90;25.40
67196;DHT22;54122;53.538;49.366;2023-06-26T05:43:14;32.80;25.30
67196;DHT22;54122;53.538;49.366;2023-06-26T05:45:41;33.00;25.30
67196;DHT22;54122;53.538;49.366;2023-06-26T05:48:08;33.10;25.10
67196;DHT22;54122;53.538;49.366;2023-06-26T05:50:35;33.10;24.80
67196;DHT22;54122;53.538;49.366;2023-06-26T05:53:02;33.20;24.50
67196;DHT22;54122;53.538;49.366;2023-06-26T05:55:29;33.40;24.80
67196;DHT22;54122;53.538;49.366;2023-06-26T05:57:58;33.20;24.50
67196;DHT22;54122;53.538;49.366;2023-06-26T06:00:26;33.20;24.50
67196;DHT22;54122;53.538;49.366;2023-06-26T06:02:53;32.60;25.00
67196;DHT22;54122;53.538;49.366;2023-06-26T06:05:23;32.30;25.60
67196;DHT22;54122;53.538;49.366;2023-06-26T06:07:50;32.30;25.70
67196;DHT22;54122;53.538;49.366;2023-06-26T06:10:17;32.30;26.00
67196;DHT22;54122;53.538;49.366;2023-06-26T06:12:43;32.30;25.50
67196;DHT22;54122;53.538;49.366;2023-06-26T06:15:09;32.30;25.60
67196;DHT22;54122;53.538;49.366;2023-06-26T06:17:36;32.40;25.60
67196;DHT22;54122;53.538;49.366;2023-06-26T06:20:03;32.60;25.20
67196;DHT22;54122;53.538;49.366;2023-06-26T06:22:30;31.40;26.00
67196;DHT22;54122;53.538;49.366;2023-06-26T06:24:57;31.10;26.00
67196;DHT22;54122;53.538;49.366;2023-06-26T06:27:23;31.20;26.00
67196;DHT22;54122;53.538;49.366;2023-06-26T06:29:50;31.90;25.60
67196;DHT22;54122;53.538;49.366;2023-06-26T06:32:16;32.20;25.10
67196;DHT22;54122;53.538;49.366;2023-06-26T06:34:43;32.40;24.60
67196;DHT22;54122;53.538;49.366;2023-06-26T06:37:09;32.60;24.70
67196;DHT22;54122;53.538;49.366;2023-06-26T06:39:36;32.90;24.00
67196;DHT22;54122;53.538;49.366;2023-06-26T06:42:02;32.00;24.30
67196;DHT22;54122;53.538;49.366;2023-06-26T06:44:29;30.40;26.20
67196;DHT22;54122;53.538;49.366;2023-06-26T06:47:01;30.50;26.50
67196;DHT22;54122;53.538;49.366;2023-06-26T06:49:28;31.20;25.50
67196;DHT22;54122;53.538;49.366;2023-06-26T06:51:55;31.50;24.70
67196;DHT22;54122;53.538;49.366;2023-06-26T06:54:21;31.80;24.40
67196;DHT22;54122;53.538;49.366;2023-06-26T06:56:48;31.20;25.40
67196;DHT22;54122;53.538;49.366;2023-06-26T06:59:15;30.90;26.30
67196;DHT22;54122;53.538;49.366;2023-06-26T07:01:41;31.40;26.00
67196;DHT22;54122;53.538;49.366;2023-06-26T07:04:08;32.00;24.80
67196;DHT22;54122;53.538;49.366;2023-06-26T07:06:34;32.50;23.40
67196;DHT22;54122;53.538;49.366;2023-06-26T07:09:05;31.90;24.50
67196;DHT22;54122;53.538;49.366;2023-06-26T07:11:33;31.90;24.60
67196;DHT22;54122;53.538;49.366;2023-06-26T07:14:00;30.80;25.10
67196;DHT22;54122;53.538;49.366;2023-06-26T07:16:27;30.10;26.40
67196;DHT22;54122;53.538;49.366;2023-06-26T07:18:53;30.90;25.60
67196;DHT22;54122;53.538;49.366;2023-06-26T07:21:26;30.90;24.50
67196;DHT22;54122;53.538;49.366;2023-06-26T07:23:56;30.00;25.60
67196;DHT22;54122;53.538;49.366;2023-06-26T07:26:23;29.20;25.00
67196;DHT22;54122;53.538;49.366;2023-06-26T07:28:50;28.90;25.40
67196;DHT22;54122;53.538;49.366;2023-06-26T07:31:16;29.10;25.50
67196;DHT22;54122;53.538;49.366;2023-06-26T07:33:43;30.20;24.70
67196;DHT22;54122;53.538;49.366;2023-06-26T07:36:09;30.50;23.60
67196;DHT22;54122;53.538;49.366;2023-06-26T07:38:36;30.60;23.90
67196;DHT22;54122;53.538;49.366;2023-06-26T07:41:05;31.20;23.40
67196;DHT22;54122;53.538;49.366;2023-06-26T07:43:46;31.50;22.70
67196;DHT22;54122;53.538;49.366;2023-06-26T07:46:12;31.40;23.00
67196;DHT22;54122;53.538;49.366;2023-06-26T07:48:43;31.70;22.70
67196;DHT22;54122;53.538;49.366;2023-06-26T07:51:13;31.80;22.80
67196;DHT22;54122;53.538;49.366;2023-06-26T07:53:39;31.60;22.60
67196;DHT22;54122;53.538;49.366;2023-06-26T07:56:08;30.90;23.70
67196;DHT22;54122;53.538;49.366;2023-06-26T07:58:35;31.30;23.40
67196;DHT22;54122;53.538;49.366;2023-06-26T08:01:01;31.90;22.30
67196;DHT22;54122;53.538;49.366;2023-06-26T08:03:28;32.20;22.00
67196;DHT22;54122;53.538;49.366;2023-06-26T08:05:54;31.90;21.80
67196;DHT22;54122;53.538;49.366;2023-06-26T08:08:21;31.20;22.90
67196;DHT22;54122;53.538;49.366;2023-06-26T08:10:47;30.90;22.50
67196;DHT22;54122;53.538;49.366;2023-06-26T08:13:14;29.80;23.80
67196;DHT22;54122;53.538;49.366;2023-06-26T08:15:40;28.50;24.60
67196;DHT22;54122;53.538;49.366;2023-06-26T08:18:07;27.30;26.90
67196;DHT22;54122;53.538;49.366;2023-06-26T08:20:33;26.20;27.00
67196;DHT22;54122;53.538;49.366;2023-06-26T08:23:03;26.30;28.00
67196;DHT22;54122;53.538;49.366;2023-06-26T08:25:31;27.60;27.00
67196;DHT22;54122;53.538;49.366;2023-06-26T08:27:58;28.90;25.70
67196;DHT22;54122;53.538;49.366;2023-06-26T08:30:25;28.70;25.30
67196;DHT22;54122;53.538;49.366;2023-06-26T08:32:55;28.00;25.60
67196;DHT22;54122;53.538;49.366;2023-06-26T08:35:22;27.50;26.60
67196;DHT22;54122;53.538;49.366;2023-06-26T08:37:48;27.60;26.70
67196;DHT22;54122;53.538;49.366;2023-06-26T08:40:17;28.00;26.60
67196;DHT22;54122;53.538;49.366;2023-06-26T08:42:45;28.50;25.90
67196;DHT22;54122;53.538;49.366;2023-06-26T08:45:12;28.50;24.80
67196;DHT22;54122;53.538;49.366;2023-06-26T08:47:39;28.30;25.60
67196;DHT22;54122;53.538;49.366;2023-06-26T08:50:10;28.10;25.90
67196;DHT22;54122;53.538;49.366;2023-06-26T08:53:18;27.80;26.00
67196;DHT22;54122;53.538;49.366;2023-06-26T08:55:35;27.60;26.90
67196;DHT22;54122;53.538;49.366;2023-06-26T08:58:04;27.50;27.10
67196;DHT22;54122;53.538;49.366;2023-06-26T09:00:31;27.20;27.60
67196;DHT22;54122;53.538;49.366;2023-06-26T09:02:58;27.10;27.90
67196;DHT22;54122;53.538;49.366;2023-06-26T09:05:26;27.20;27.80
67196;DHT22;54122;53.538;49.366;2023-06-26T09:07:58;27.30;27.50
67196;DHT22;54122;53.538;49.366;2023-06-26T09:10:24;27.20;26.90
67196;DHT22;54122;53.538;49.366;2023-06-26T09:12:55;27.40;27.50
67196;DHT22;54122;53.538;49.366;2023-06-26T09:15:23;27.60;26.90
67196;DHT22;54122;53.538;49.366;2023-06-26T09:17:50;27.80;26.60
67196;DHT22;54122;53.538;49.366;2023-06-26T09:20:21;27.70;26.70
67196;DHT22;54122;53.538;49.366;2023-06-26T09:22:48;27.60;26.80
67196;DHT22;54122;53.538;49.366;2023-06-26T09:25:15;27.10;27.40
67196;DHT22;54122;53.538;49.366;2023-06-26T09:27:43;27.00;28.10
67196;DHT22;54122;53.538;49.366;2023-06-26T09:30:10;27.20;27.70
67196;DHT22;54122;53.538;49.366;2023-06-26T09:32:37;27.10;27.50
67196;DHT22;54122;53.538;49.366;2023-06-26T09:35:04;26.70;27.80
67196;DHT22;54122;53.538;49.366;2023-06-26T09:37:31;26.10;28.30
67196;DHT22;54122;53.538;49.366;2023-06-26T09:39:57;25.70;29.20
67196;DHT22;54122;53.538;49.366;2023-06-26T09:42:24;25.80;29.70
67196;DHT22;54122;53.538;49.366;2023-06-26T09:44:50;26.20;28.90
67196;DHT22;54122;53.538;49.366;2023-06-26T09:47:19;26.70;28.70
67196;DHT22;54122;53.538;49.366;2023-06-26T09:49:46;27.10;28.00
67196;DHT22;54122;53.538;49.366;2023-06-26T09:52:16;27.40;27.70
67196;DHT22;54122;53.538;49.366;2023-06-26T09:54:43;27.60;27.90
67196;DHT22;54122;53.538;49.366;2023-06-26T09:57:13;27.60;27.20
67196;DHT22;54122;53.538;49.366;2023-06-26T09:59:42;27.60;27.30
67196;DHT22;54122;53.538;49.366;2023-06-26T10:02:10;27.30;27.00
67196;DHT22;54122;53.538;49.366;2023-06-26T10:04:38;27.00;27.60
67196;DHT22;54122;53.538;49.366;2023-06-26T10:07:06;26.80;27.60
67196;DHT22;54122;53.538;49.366;2023-06-26T10:09:33;26.70;27.90
67196;DHT22;54122;53.538;49.366;2023-06-26T10:12:13;26.40;28.90
67196;DHT22;54122;53.538;49.366;2023-06-26T10:14:41;26.10;28.60
67196;DHT22;54122;53.538;49.366;2023-06-26T10:17:10;26.00;29.30
67196;DHT22;54122;53.538;49.366;2023-06-26T10:19:44;25.90;29.60
67196;DHT22;54122;53.538;49.366;2023-06-26T10:22:20;26.10;29.10
67196;DHT22;54122;53.538;49.366;2023-06-26T10:24:49;26.20;29.00
67196;DHT22;54122;53.538;49.366;2023-06-26T10:27:21;26.00;28.90
67196;DHT22;54122;53.538;49.366;2023-06-26T10:29:52;25.80;29.10
67196;DHT22;54122;53.538;49.366;2023-06-26T10:32:21;25.80;29.20
67196;DHT22;54122;53.538;49.366;2023-06-26T10:34:50;26.10;29.40
67196;DHT22;54122;53.538;49.366;2023-06-26T10:37:17;26.20;28.70
67196;DHT22;54122;53.538;49.366;2023-06-26T10:39:51;26.10;28.60
67196;DHT22;54122;53.538;49.366;2023-06-26T10:42:19;25.70;28.30
67196;DHT22;54122;53.538;49.366;2023-06-26T10:44:46;25.50;29.10
67196;DHT22;54122;53.538;49.366;2023-06-26T10:47:46;25.70;29.80
67196;DHT22;54122;53.538;49.366;2023-06-26T10:50:24;25.60;29.60
67196;DHT22;54122;53.538;49.366;2023-06-26T10:53:07;25.60;29.90
67196;DHT22;54122;53.538;49.366;2023-06-26T10:55:35;25.50;28.90
67196;DHT22;54122;53.538;49.366;2023-06-26T10:58:02;25.50;28.50
67196;DHT22;54122;53.538;49.366;2023-06-26T11:00:31;25.40;28.90
67196;DHT22;54122;53.538;49.366;2023-06-26T11:02:58;25.50;29.40
67196;DHT22;54122;53.538;49.366;2023-06-26T11:05:28;25.60;29.20
67196;DHT22;54122;53.538;49.366;2023-06-26T11:08:07;25.80;28.90
67196;DHT22;54122;53.538;49.366;2023-06-26T11:10:53;25.90;28.90
67196;DHT22;54122;53.538;49.366;2023-06-26T11:13:21;26.10;28.30
67196;DHT22;54122;53.538;49.366;2023-06-26T11:15:49;25.90;28.10
67196;DHT22;54122;53.538;49.366;2023-06-26T11:18:19;25.60;28.60
67196;DHT22;54122;53.538;49.366;2023-06-26T11:20:48;25.50;28.90
67196;DHT22;54122;53.538;49.366;2023-06-26T11:23:19;25.20;29.10
67196;DHT22;54122;53.538;49.366;2023-06-26T11:25:50;24.80;30.30
67196;DHT22;54122;53.538;49.366;2023-06-26T11:28:16;24.30;29.80
67196;DHT22;54122;53.538;49.366;2023-06-26T11:30:43;24.20;30.00
67196;DHT22;54122;53.538;49.366;2023-06-26T11:33:10;24.30;30.30
67196;DHT22;54122;53.538;49.366;2023-06-26T11:35:37;24.30;29.90
67196;DHT22;54122;53.538;49.366;2023-06-26T11:38:04;24.40;29.80
67196;DHT22;54122;53.538;49.366;2023-06-26T11:40:35;24.50;30.60
67196;DHT22;54122;53.538;49.366;2023-06-26T11:43:03;24.50;29.70
67196;DHT22;54122;53.538;49.366;2023-06-26T11:45:33;24.70;29.20
67196;DHT22;54122;53.538;49.366;2023-06-26T11:48:00;24.80;29.10
67196;DHT22;54122;53.538;49.366;2023-06-26T11:50:27;25.00;28.50
67196;DHT22;54122;53.538;49.366;2023-06-26T11:52:56;25.10;28.90
67196;DHT22;54122;53.538;49.366;2023-06-26T11:55:23;25.40;29.30
67196;DHT22;54122;53.538;49.366;2023-06-26T11:57:53;25.70;29.40
67196;DHT22;54122;53.538;49.366;2023-06-26T12:00:20;25.90;28.60
67196;DHT22;54122;53.538;49.366;2023-06-26T12:02:47;25.80;28.20
67196;DHT22;54122;53.538;49.366;2023-06-26T12:05:15;25.70;28.60
67196;DHT22;54122;53.538;49.366;2023-06-26T12:07:51;25.70;29.10
67196;DHT22;54122;53.538;49.366;2023-06-26T12:10:19;25.90;28.40
67196;DHT22;54122;53.538;49.366;2023-06-26T12:12:46;25.80;27.90
67196;DHT22;54122;53.538;49.366;2023-06-26T12:15:15;25.70;27.50
67196;DHT22;54122;53.538;49.366;2023-06-26T12:17:42;25.60;27.60
67196;DHT22;54122;53.538;49.366;2023-06-26T12:20:29;25.60;27.20
67196;DHT22;54122;53.538;49.366;2023-06-26T12:22:58;25.80;27.40
67196;DHT22;54122;53.538;49.366;2023-06-26T12:25:24;25.70;27.60
67196;DHT22;54122;53.538;49.366;2023-06-26T12:27:51;25.50;27.70
67196;DHT22;54122;53.538;49.366;2023-06-26T12:30:20;25.30;27.40
67196;DHT22;54122;53.538;49.366;2023-06-26T12:32:47;25.10;28.00
67196;DHT22;54122;53.538;49.366;2023-06-26T12:35:13;25.20;28.30
67196;DHT22;54122;53.538;49.366;2023-06-26T12:37:42;25.30;27.90
67196;DHT22;54122;53.538;49.366;2023-06-26T12:40:17;25.20;28.10
67196;DHT22;54122;53.538;49.366;2023-06-26T12:42:45;25.30;27.90
67196;DHT22;54122;53.538;49.366;2023-06-26T12:45:13;25.20;27.70
67196;DHT22;54122;53.538;49.366;2023-06-26T12:47:39;25.10;27.10
67196;DHT22;54122;53.538;49.366;2023-06-26T12:50:07;24.90;27.20
67196;DHT22;54122;53.538;49.366;2023-06-26T12:52:34;24.90;27.50
67196;DHT22;54122;53.538;49.366;2023-06-26T12:55:00;25.00;27.30
67196;DHT22;54122;53.538;49.366;2023-06-26T12:57:27;25.10;27.10
67196;DHT22;54122;53.538;49.366;2023-06-26T12:59:53;25.10;27.90
67196;DHT22;54122;53.538;49.366;2023-06-26T13:02:20;24.90;26.70
67196;DHT22;54122;53.538;49.366;2023-06-26T13:04:46;24.80;26.50
67196;DHT22;54122;53.538;49.366;2023-06-26T13:07:13;24.70;26.30
67196;DHT22;54122;53.538;49.366;2023-06-26T13:09:45;24.70;26.60
67196;DHT22;54122;53.538;49.366;2023-06-26T13:12:13;24.60;26.20
67196;DHT22;54122;53.538;49.366;2023-06-26T13:14:40;24.50;26.00
67196;DHT22;54122;53.538;49.366;2023-06-26T13:17:06;24.50;26.30
67196;DHT22;54122;53.538;49.366;2023-06-26T13:19:32;24.50;26.40
67196;DHT22;54122;53.538;49.366;2023-06-26T13:21:59;24.50;26.20
67196;DHT22;54122;53.538;49.366;2023-06-26T13:24:26;24.50;26.30
67196;DHT22;54122;53.538;49.366;2023-06-26T13:26:52;24.50;26.20
67196;DHT22;54122;53.538;49.366;2023-06-26T13:29:20;24.50;26.50
67196;DHT22;54122;53.538;49.366;2023-06-26T13:31:46;24.50;27.10
67196;DHT22;54122;53.538;49.366;2023-06-26T13:34:23;24.50;26.90
67196;DHT22;54122;53.538;49.366;2023-06-26T13:36:50;24.50;27.30
67196;DHT22;54122;53.538;49.366;2023-06-26T13:39:17;24.50;26.90
67196;DHT22;54122;53.538;49.366;2023-06-26T13:41:43;24.50;26.80
67196;DHT22;54122;53.538;49.366;2023-06-26T13:44:10;24.40;27.00
67196;DHT22;54122;53.538;49.366;2023-06-26T13:46:36;24.40;27.20
67196;DHT22;54122;53.538;49.366;2023-06-26T13:49:03;24.30;26.80
67196;DHT22;54122;53.538;49.366;2023-06-26T13:51:29;24.30;27.00
67196;DHT22;54122;53.538;49.366;2023-06-26T13:53:56;24.30;26.80
67196;DHT22;54122;53.538;49.366;2023-06-26T13:56:26;24.30;27.00
67196;DHT22;54122;53.538;49.366;2023-06-26T13:58:53;24.40;27.30
67196;DHT22;54122;53.538;49.366;2023-06-26T14:01:23;24.50;27.40
67196;DHT22;54122;53.538;49.366;2023-06-26T14:03:50;24.60;26.70
67196;DHT22;54122;53.538;49.366;2023-06-26T14:06:16;24.50;26.70
67196;DHT22;54122;53.538;49.366;2023-06-26T14:08:43;24.50;26.50
67196;DHT22;54122;53.538;49.366;2023-06-26T14:11:10;24.40;26.70
67196;DHT22;54122;53.538;49.366;2023-06-26T14:13:37;24.30;27.10
67196;DHT22;54122;53.538;49.366;2023-06-26T14:16:06;24.40;26.70
67196;DHT22;54122;53.538;49.366;2023-06-26T14:18:33;24.30;26.70
67196;DHT22;54122;53.538;49.366;2023-06-26T14:21:03;24.40;26.80
67196;DHT22;54122;53.538;49.366;2023-06-26T14:23:30;24.60;26.90
67196;DHT22;54122;53.538;49.366;2023-06-26T14:25:56;24.80;26.20
67196;DHT22;54122;53.538;49.366;2023-06-26T14:28:25;24.90;26.00
67196;DHT22;54122;53.538;49.366;2023-06-26T14:30:54;24.90;26.00
67196;DHT22;54122;53.538;49.366;2023-06-26T14:33:21;25.00;26.20
67196;DHT22;54122;53.538;49.366;2023-06-26T14:35:47;25.10;26.50
67196;DHT22;54122;53.538;49.366;2023-06-26T14:38:14;25.10;26.30
67196;DHT22;54122;53.538;49.366;2023-06-26T14:40:40;25.10;26.50
67196;DHT22;54122;53.538;49.366;2023-06-26T14:43:07;25.00;26.40
67196;DHT22;54122;53.538;49.366;2023-06-26T14:45:33;24.90;26.50
67196;DHT22;54122;53.538;49.366;2023-06-26T14:47:59;24.90;26.50
67196;DHT22;54122;53.538;49.366;2023-06-26T14:50:26;25.00;26.90
67196;DHT22;54122;53.538;49.366;2023-06-26T14:52:52;25.10;26.10
67196;DHT22;54122;53.538;49.366;2023-06-26T14:55:19;24.90;25.90
67196;DHT22;54122;53.538;49.366;2023-06-26T14:57:45;24.80;26.30
67196;DHT22;54122;53.538;49.366;2023-06-26T15:00:12;24.70;26.50
67196;DHT22;54122;53.538;49.366;2023-06-26T15:02:39;24.60;27.00
67196;DHT22;54122;53.538;49.366;2023-06-26T15:05:05;24.60;27.00
67196;DHT22;54122;53.538;49.366;2023-06-26T15:07:31;24.50;26.80
67196;DHT22;54122;53.538;49.366;2023-06-26T15:09:59;24.50;26.90
67196;DHT22;54122;53.538;49.366;2023-06-26T15:12:25;24.40;26.70
67196;DHT22;54122;53.538;49.366;2023-06-26T15:14:53;24.30;26.90
67196;DHT22;54122;53.538;49.366;2023-06-26T15:17:19;24.10;27.20
67196;DHT22;54122;53.538;49.366;2023-06-26T15:19:46;24.00;28.40